sensor_id;sensor_type;location;lat;lon;timestamp;pressure;altitude;pressure_sealevel;temperature;humidity
53635;BME280;39542;-34.932;138.594;2023-06-10T00:00:17;101678.95;;;16.88;64.02
53635;BME280;39542;-34.932;138.594;2023-06-10T00:00:51;101679.40;;;16.87;63.87
53635;BME280;39542;-34.932;138.594;2023-06-10T00:01:25;101677.98;;;16.85;63.76
53635;BME280;39542;-34.932;138.594;2023-06-10T00:02:00;101678.12;;;16.84;63.65
53635;BME280;39542;-34.932;138.594;2023-06-10T00:02:34;101680.04;;;16.82;63.65
53635;BME280;39542;-34.932;138.594;2023-06-10T00:03:09;101677.60;;;16.80;63.60
53635;BME280;39542;-34.932;138.594;2023-06-10T00:03:43;101676.94;;;16.79;63.69
53635;BME280;39542;-34.932;138.594;2023-06-10T00:04:18;101677.19;;;16.82;63.55
53635;BME280;39542;-34.932;138.594;2023-06-10T00:04:52;101677.17;;;16.81;63.53
53635;BME280;39542;-34.932;138.594;2023-06-10T00:05:25;101677.25;;;16.79;63.51
53635;BME280;39542;-34.932;138.594;2023-06-10T00:06:00;101679.26;;;16.79;63.48
53635;BME280;39542;-34.932;138.594;2023-06-10T00:06:34;101677.67;;;16.77;63.40
53635;BME280;39542;-34.932;138.594;2023-06-10T00:07:09;101679.43;;;16.78;63.51
53635;BME280;39542;-34.932;138.594;2023-06-10T00:07:43;101681.98;;;16.79;63.42
53635;BME280;39542;-34.932;138.594;2023-06-10T00:08:18;101680.38;;;16.77;63.41
53635;BME280;39542;-34.932;138.594;2023-06-10T00:08:52;101680.04;;;16.77;63.50
53635;BME280;39542;-34.932;138.594;2023-06-10T00:09:26;101682.41;;;16.76;63.41
53635;BME280;39542;-34.932;138.594;2023-06-10T00:10:01;101683.61;;;16.76;63.43
53635;BME280;39542;-34.932;138.594;2023-06-10T00:10:36;101682.73;;;16.74;63.50
53635;BME280;39542;-34.932;138.594;2023-06-10T00:11:11;101685.74;;;16.76;63.43
53635;BME280;39542;-34.932;138.594;2023-06-10T00:11:45;101686.19;;;16.76;63.41
53635;BME280;39542;-34.932;138.594;2023-06-10T00:12:19;101687.49;;;16.76;63.39
53635;BME280;39542;-34.932;138.594;2023-06-10T00:12:53;101687.22;;;16.76;63.31
53635;BME280;39542;-34.932;138.594;2023-06-10T00:13:28;101686.91;;;16.76;63.40
53635;BME280;39542;-34.932;138.594;2023-06-10T00:14:02;101688.22;;;16.75;63.41
53635;BME280;39542;-34.932;138.594;2023-06-10T00:14:37;101687.41;;;16.75;63.47
53635;BME280;39542;-34.932;138.594;2023-06-10T00:15:12;101690.52;;;16.75;63.36
53635;BME280;39542;-34.932;138.594;2023-06-10T00:15:47;101693.73;;;16.74;63.39
53635;BME280;39542;-34.932;138.594;2023-06-10T00:16:21;101693.61;;;16.72;63.36
53635;BME280;39542;-34.932;138.594;2023-06-10T00:16:55;101692.47;;;16.72;63.35
53635;BME280;39542;-34.932;138.594;2023-06-10T00:17:29;101691.96;;;16.73;63.38
53635;BME280;39542;-34.932;138.594;2023-06-10T00:18:04;101690.07;;;16.76;63.19
53635;BME280;39542;-34.932;138.594;2023-06-10T00:18:38;101687.89;;;16.72;63.05
53635;BME280;39542;-34.932;138.594;2023-06-10T00:19:13;101689.56;;;16.74;63.05
53635;BME280;39542;-34.932;138.594;2023-06-10T00:19:48;101692.72;;;16.76;63.24
53635;BME280;39542;-34.932;138.594;2023-06-10T00:20:22;101693.82;;;16.77;63.53
53635;BME280;39542;-34.932;138.594;2023-06-10T00:20:56;101694.48;;;16.76;63.48
53635;BME280;39542;-34.932;138.594;2023-06-10T00:21:31;101696.71;;;16.78;63.54
53635;BME280;39542;-34.932;138.594;2023-06-10T00:22:05;101699.66;;;16.79;63.70
53635;BME280;39542;-34.932;138.594;2023-06-10T00:22:40;101700.16;;;16.78;63.56
53635;BME280;39542;-34.932;138.594;2023-06-10T00:23:14;101701.58;;;16.77;63.56
53635;BME280;39542;-34.932;138.594;2023-06-10T00:23:49;101701.07;;;16.78;63.75
53635;BME280;39542;-34.932;138.594;2023-06-10T00:24:23;101702.48;;;16.77;63.74
53635;BME280;39542;-34.932;138.594;2023-06-10T00:24:57;101701.74;;;16.81;63.96
53635;BME280;39542;-34.932;138.594;2023-06-10T00:25:32;101698.79;;;16.81;64.28
53635;BME280;39542;-34.932;138.594;2023-06-10T00:26:06;101698.65;;;16.83;64.20
53635;BME280;39542;-34.932;138.594;2023-06-10T00:26:41;101697.83;;;16.85;64.14
53635;BME280;39542;-34.932;138.594;2023-06-10T00:27:15;101700.49;;;16.89;64.59
53635;BME280;39542;-34.932;138.594;2023-06-10T00:27:49;101701.18;;;16.87;64.38
53635;BME280;39542;-34.932;138.594;2023-06-10T00:28:23;101700.60;;;16.87;64.41
53635;BME280;39542;-34.932;138.594;2023-06-10T00:28:58;101700.50;;;16.85;64.62
53635;BME280;39542;-34.932;138.594;2023-06-10T00:29:32;101699.14;;;16.86;64.83
53635;BME280;39542;-34.932;138.594;2023-06-10T00:30:07;101699.65;;;16.87;64.53
53635;BME280;39542;-34.932;138.594;2023-06-10T00:30:42;101696.80;;;16.88;64.88
53635;BME280;39542;-34.932;138.594;2023-06-10T00:31:16;101698.57;;;16.88;64.75
53635;BME280;39542;-34.932;138.594;2023-06-10T00:31:50;101696.74;;;16.90;64.99
53635;BME280;39542;-34.932;138.594;2023-06-10T00:32:24;101695.93;;;16.88;64.71
53635;BME280;39542;-34.932;138.594;2023-06-10T00:32:59;101696.35;;;16.89;64.44
53635;BME280;39542;-34.932;138.594;2023-06-10T00:33:33;101695.53;;;16.88;64.48
53635;BME280;39542;-34.932;138.594;2023-06-10T00:34:07;101696.19;;;16.88;64.84
53635;BME280;39542;-34.932;138.594;2023-06-10T00:34:42;101694.73;;;16.92;65.43
53635;BME280;39542;-34.932;138.594;2023-06-10T00:35:16;101699.02;;;16.94;65.38
53635;BME280;39542;-34.932;138.594;2023-06-10T00:35:50;101699.04;;;16.92;65.12
53635;BME280;39542;-34.932;138.594;2023-06-10T00:36:24;101696.55;;;16.92;65.37
53635;BME280;39542;-34.932;138.594;2023-06-10T00:36:59;101698.89;;;16.95;65.59
53635;BME280;39542;-34.932;138.594;2023-06-10T00:37:33;101699.08;;;16.93;65.35
53635;BME280;39542;-34.932;138.594;2023-06-10T00:38:07;101697.08;;;16.96;65.20
53635;BME280;39542;-34.932;138.594;2023-06-10T00:38:42;101699.63;;;16.97;65.38
53635;BME280;39542;-34.932;138.594;2023-06-10T00:39:17;101699.00;;;16.97;65.24
53635;BME280;39542;-34.932;138.594;2023-06-10T00:39:51;101698.10;;;16.98;65.37
53635;BME280;39542;-34.932;138.594;2023-06-10T00:40:25;101698.87;;;16.97;65.11
53635;BME280;39542;-34.932;138.594;2023-06-10T00:40:59;101697.53;;;16.95;65.13
53635;BME280;39542;-34.932;138.594;2023-06-10T00:41:34;101697.30;;;16.96;65.42
53635;BME280;39542;-34.932;138.594;2023-06-10T00:42:09;101696.25;;;16.94;65.39
53635;BME280;39542;-34.932;138.594;2023-06-10T00:42:43;101697.63;;;16.95;65.88
53635;BME280;39542;-34.932;138.594;2023-06-10T00:43:18;101696.83;;;16.96;65.51
53635;BME280;39542;-34.932;138.594;2023-06-10T00:43:52;101695.77;;;16.95;65.21
53635;BME280;39542;-34.932;138.594;2023-06-10T00:44:26;101694.09;;;16.94;65.21
53635;BME280;39542;-34.932;138.594;2023-06-10T00:45:00;101695.59;;;16.95;65.07
53635;BME280;39542;-34.932;138.594;2023-06-10T00:45:34;101696.34;;;16.99;65.66
53635;BME280;39542;-34.932;138.594;2023-06-10T00:46:09;101697.14;;;16.98;65.62
53635;BME280;39542;-34.932;138.594;2023-06-10T00:46:43;101697.26;;;16.98;65.80
53635;BME280;39542;-34.932;138.594;2023-06-10T00:47:18;101699.45;;;16.99;65.51
53635;BME280;39542;-34.932;138.594;2023-06-10T00:47:52;101699.14;;;16.97;65.30
53635;BME280;39542;-34.932;138.594;2023-06-10T00:48:27;101696.08;;;16.97;65.21
53635;BME280;39542;-34.932;138.594;2023-06-10T00:49:03;101696.26;;;16.97;65.20
53635;BME280;39542;-34.932;138.594;2023-06-10T00:49:38;101697.20;;;17.01;65.25
53635;BME280;39542;-34.932;138.594;2023-06-10T00:50:12;101696.38;;;17.02;65.41
53635;BME280;39542;-34.932;138.594;2023-06-10T00:50:47;101697.01;;;17.04;65.43
53635;BME280;39542;-34.932;138.594;2023-06-10T00:51:22;101698.36;;;17.04;65.50
53635;BME280;39542;-34.932;138.594;2023-06-10T00:51:56;101698.18;;;17.04;65.32
53635;BME280;39542;-34.932;138.594;2023-06-10T00:52:31;101697.94;;;17.03;65.56
53635;BME280;39542;-34.932;138.594;2023-06-10T00:53:05;101697.51;;;17.07;65.83
53635;BME280;39542;-34.932;138.594;2023-06-10T00:53:41;101699.14;;;17.06;65.87
53635;BME280;39542;-34.932;138.594;2023-06-10T00:54:15;101696.35;;;17.07;65.86
53635;BME280;39542;-34.932;138.594;2023-06-10T00:54:50;101697.61;;;17.08;65.67
53635;BME280;39542;-34.932;138.594;2023-06-10T00:55:24;101697.47;;;17.11;65.94
53635;BME280;39542;-34.932;138.594;2023-06-10T00:55:59;101698.67;;;17.13;65.95
53635;BME280;39542;-34.932;138.594;2023-06-10T00:56:34;101696.69;;;17.11;65.81
53635;BME280;39542;-34.932;138.594;2023-06-10T00:57:09;101694.06;;;17.10;65.74
53635;BME280;39542;-34.932;138.594;2023-06-10T00:57:43;101695.16;;;17.07;65.76
53635;BME280;39542;-34.932;138.594;2023-06-10T00:58:18;101693.94;;;17.05;65.61
53635;BME280;39542;-34.932;138.594;2023-06-10T00:58:52;101695.66;;;17.02;65.65
53635;BME280;39542;-34.932;138.594;2023-06-10T00:59:26;101694.50;;;17.01;65.62
53635;BME280;39542;-34.932;138.594;2023-06-10T01:00:00;101693.88;;;17.01;65.63
53635;BME280;39542;-34.932;138.594;2023-06-10T01:00:35;101693.96;;;17.02;65.59
53635;BME280;39542;-34.932;138.594;2023-06-10T01:01:09;101692.54;;;17.03;65.54
53635;BME280;39542;-34.932;138.594;2023-06-10T01:05:23;101690.67;;;17.08;65.66
53635;BME280;39542;-34.932;138.594;2023-06-10T01:06:06;101690.44;;;17.11;65.62
53635;BME280;39542;-34.932;138.594;2023-06-10T01:06:51;101686.74;;;17.16;65.36
53635;BME280;39542;-34.932;138.594;2023-06-10T01:07:36;101685.69;;;17.30;66.02
53635;BME280;39542;-34.932;138.594;2023-06-10T01:08:16;101681.64;;;17.39;65.57
53635;BME280;39542;-34.932;138.594;2023-06-10T01:09:00;101675.66;;;17.47;64.95
53635;BME280;39542;-34.932;138.594;2023-06-10T01:09:41;101672.42;;;17.51;64.50
53635;BME280;39542;-34.932;138.594;2023-06-10T01:10:23;101669.86;;;17.57;64.29
53635;BME280;39542;-34.932;138.594;2023-06-10T01:11:03;101669.85;;;17.63;64.45
53635;BME280;39542;-34.932;138.594;2023-06-10T01:11:47;101671.94;;;17.68;64.70
53635;BME280;39542;-34.932;138.594;2023-06-10T01:12:29;101671.74;;;17.73;64.51
53635;BME280;39542;-34.932;138.594;2023-06-10T01:13:09;101667.73;;;17.78;64.42
53635;BME280;39542;-34.932;138.594;2023-06-10T01:13:45;101669.88;;;17.80;64.30
53635;BME280;39542;-34.932;138.594;2023-06-10T01:14:20;101670.48;;;17.81;64.39
53635;BME280;39542;-34.932;138.594;2023-06-10T01:14:56;101669.93;;;17.80;64.33
53635;BME280;39542;-34.932;138.594;2023-06-10T01:15:31;101671.67;;;17.73;64.52
53635;BME280;39542;-34.932;138.594;2023-06-10T01:16:05;101674.01;;;17.67;64.81
53635;BME280;39542;-34.932;138.594;2023-06-10T01:16:40;101673.30;;;17.59;64.65
53635;BME280;39542;-34.932;138.594;2023-06-10T01:17:14;101672.76;;;17.51;64.70
53635;BME280;39542;-34.932;138.594;2023-06-10T01:17:58;101675.25;;;17.43;64.10
53635;BME280;39542;-34.932;138.594;2023-06-10T01:18:33;101677.31;;;17.34;63.73
53635;BME280;39542;-34.932;138.594;2023-06-10T01:19:07;101678.45;;;17.27;63.81
53635;BME280;39542;-34.932;138.594;2023-06-10T01:19:41;101679.26;;;17.24;63.84
53635;BME280;39542;-34.932;138.594;2023-06-10T01:20:16;101678.05;;;17.23;64.17
53635;BME280;39542;-34.932;138.594;2023-06-10T01:20:50;101676.85;;;17.20;64.48
53635;BME280;39542;-34.932;138.594;2023-06-10T01:21:25;101678.49;;;17.19;64.58
53635;BME280;39542;-34.932;138.594;2023-06-10T01:21:59;101677.39;;;17.18;64.71
53635;BME280;39542;-34.932;138.594;2023-06-10T01:22:33;101674.68;;;17.17;64.93
53635;BME280;39542;-34.932;138.594;2023-06-10T01:23:11;101676.48;;;17.16;65.27
53635;BME280;39542;-34.932;138.594;2023-06-10T01:23:46;101674.45;;;17.15;65.30
53635;BME280;39542;-34.932;138.594;2023-06-10T01:24:22;101677.36;;;17.14;65.27
53635;BME280;39542;-34.932;138.594;2023-06-10T01:24:57;101677.42;;;17.11;65.18
53635;BME280;39542;-34.932;138.594;2023-06-10T01:25:32;101674.65;;;17.10;65.21
53635;BME280;39542;-34.932;138.594;2023-06-10T01:26:11;101675.63;;;17.10;65.44
53635;BME280;39542;-34.932;138.594;2023-06-10T01:26:48;101676.51;;;17.10;65.65
53635;BME280;39542;-34.932;138.594;2023-06-10T01:27:29;101676.55;;;17.08;65.57
53635;BME280;39542;-34.932;138.594;2023-06-10T01:28:15;101677.22;;;17.08;65.69
53635;BME280;39542;-34.932;138.594;2023-06-10T01:28:52;101675.38;;;17.07;65.61
53635;BME280;39542;-34.932;138.594;2023-06-10T01:29:35;101674.71;;;17.06;65.74
53635;BME280;39542;-34.932;138.594;2023-06-10T01:30:14;101674.54;;;17.05;65.76
53635;BME280;39542;-34.932;138.594;2023-06-10T01:30:53;101675.59;;;17.05;66.06
53635;BME280;39542;-34.932;138.594;2023-06-10T01:31:38;101675.29;;;17.05;66.09
53635;BME280;39542;-34.932;138.594;2023-06-10T01:32:21;101674.03;;;17.05;66.16
53635;BME280;39542;-34.932;138.594;2023-06-10T01:32:57;101673.57;;;17.05;66.46
53635;BME280;39542;-34.932;138.594;2023-06-10T01:33:35;101672.86;;;17.04;66.22
53635;BME280;39542;-34.932;138.594;2023-06-10T01:34:13;101671.03;;;17.04;66.33
53635;BME280;39542;-34.932;138.594;2023-06-10T01:34:48;101670.48;;;17.03;66.34
53635;BME280;39542;-34.932;138.594;2023-06-10T01:35:25;101672.09;;;17.03;66.39
53635;BME280;39542;-34.932;138.594;2023-06-10T01:36:00;101667.21;;;17.02;66.17
53635;BME280;39542;-34.932;138.594;2023-06-10T01:36:36;101668.27;;;17.02;66.21
53635;BME280;39542;-34.932;138.594;2023-06-10T01:37:13;101669.67;;;17.01;66.10
53635;BME280;39542;-34.932;138.594;2023-06-10T01:37:50;101669.58;;;16.99;66.15
53635;BME280;39542;-34.932;138.594;2023-06-10T01:38:27;101666.93;;;16.99;66.40
53635;BME280;39542;-34.932;138.594;2023-06-10T01:39:04;101665.99;;;17.00;66.53
53635;BME280;39542;-34.932;138.594;2023-06-10T01:39:39;101667.36;;;17.02;66.66
53635;BME280;39542;-34.932;138.594;2023-06-10T01:40:16;101666.66;;;17.02;66.54
53635;BME280;39542;-34.932;138.594;2023-06-10T01:40:51;101663.83;;;17.02;66.58
53635;BME280;39542;-34.932;138.594;2023-06-10T01:41:26;101663.89;;;17.00;66.39
53635;BME280;39542;-34.932;138.594;2023-06-10T01:42:01;101663.66;;;16.99;66.37
53635;BME280;39542;-34.932;138.594;2023-06-10T01:42:36;101660.69;;;16.99;66.52
53635;BME280;39542;-34.932;138.594;2023-06-10T01:43:10;101661.24;;;17.00;66.29
53635;BME280;39542;-34.932;138.594;2023-06-10T01:43:47;101662.07;;;17.02;66.74
53635;BME280;39542;-34.932;138.594;2023-06-10T01:44:23;101659.91;;;17.04;66.78
53635;BME280;39542;-34.932;138.594;2023-06-10T01:44:58;101657.92;;;17.03;66.64
53635;BME280;39542;-34.932;138.594;2023-06-10T01:45:32;101656.16;;;17.02;66.71
53635;BME280;39542;-34.932;138.594;2023-06-10T01:49:31;101651.85;;;17.11;66.43
53635;BME280;39542;-34.932;138.594;2023-06-10T01:50:08;101650.06;;;17.13;66.35
53635;BME280;39542;-34.932;138.594;2023-06-10T01:50:44;101650.47;;;17.21;66.18
53635;BME280;39542;-34.932;138.594;2023-06-10T01:51:19;101647.79;;;17.29;65.95
53635;BME280;39542;-34.932;138.594;2023-06-10T01:51:54;101646.19;;;17.35;65.79
53635;BME280;39542;-34.932;138.594;2023-06-10T01:52:30;101645.03;;;17.41;65.65
53635;BME280;39542;-34.932;138.594;2023-06-10T01:53:05;101644.25;;;17.48;65.40
53635;BME280;39542;-34.932;138.594;2023-06-10T01:53:41;101643.86;;;17.52;65.28
53635;BME280;39542;-34.932;138.594;2023-06-10T01:54:17;101646.06;;;17.58;65.08
53635;BME280;39542;-34.932;138.594;2023-06-10T01:54:52;101646.73;;;17.62;64.99
53635;BME280;39542;-34.932;138.594;2023-06-10T01:55:28;101647.27;;;17.66;64.86
53635;BME280;39542;-34.932;138.594;2023-06-10T01:56:03;101647.44;;;17.70;64.76
53635;BME280;39542;-34.932;138.594;2023-06-10T01:56:39;101646.81;;;17.74;64.65
53635;BME280;39542;-34.932;138.594;2023-06-10T01:57:14;101644.25;;;17.78;64.50
53635;BME280;39542;-34.932;138.594;2023-06-10T01:57:49;101642.27;;;17.82;64.32
53635;BME280;39542;-34.932;138.594;2023-06-10T01:58:23;101642.94;;;17.85;64.26
53635;BME280;39542;-34.932;138.594;2023-06-10T01:58:58;101644.04;;;17.86;64.19
53635;BME280;39542;-34.932;138.594;2023-06-10T01:59:32;101644.19;;;17.82;64.23
53635;BME280;39542;-34.932;138.594;2023-06-10T02:00:08;101640.27;;;17.77;64.38
53635;BME280;39542;-34.932;138.594;2023-06-10T02:00:43;101640.21;;;17.73;64.49
53635;BME280;39542;-34.932;138.594;2023-06-10T02:01:17;101640.83;;;17.67;64.55
53635;BME280;39542;-34.932;138.594;2023-06-10T02:01:51;101642.27;;;17.63;64.66
53635;BME280;39542;-34.932;138.594;2023-06-10T02:02:25;101642.23;;;17.57;64.82
53635;BME280;39542;-34.932;138.594;2023-06-10T02:03:00;101637.07;;;17.51;64.95
53635;BME280;39542;-34.932;138.594;2023-06-10T02:03:34;101634.57;;;17.45;65.11
53635;BME280;39542;-34.932;138.594;2023-06-10T02:04:08;101634.24;;;17.42;65.16
53635;BME280;39542;-34.932;138.594;2023-06-10T02:04:42;101634.54;;;17.39;65.19
53635;BME280;39542;-34.932;138.594;2023-06-10T02:05:17;101632.48;;;17.37;65.23
53635;BME280;39542;-34.932;138.594;2023-06-10T02:05:51;101631.65;;;17.35;65.27
53635;BME280;39542;-34.932;138.594;2023-06-10T02:06:25;101628.33;;;17.34;65.33
53635;BME280;39542;-34.932;138.594;2023-06-10T02:07:00;101625.62;;;17.32;65.30
53635;BME280;39542;-34.932;138.594;2023-06-10T02:07:34;101626.91;;;17.31;65.31
53635;BME280;39542;-34.932;138.594;2023-06-10T02:08:08;101624.22;;;17.29;65.39
53635;BME280;39542;-34.932;138.594;2023-06-10T02:08:43;101623.25;;;17.29;65.35
53635;BME280;39542;-34.932;138.594;2023-06-10T02:09:17;101621.84;;;17.27;65.49
53635;BME280;39542;-34.932;138.594;2023-06-10T02:09:51;101618.14;;;17.26;65.44
53635;BME280;39542;-34.932;138.594;2023-06-10T02:10:25;101617.70;;;17.25;65.46
53635;BME280;39542;-34.932;138.594;2023-06-10T02:11:00;101615.79;;;17.25;65.43
53635;BME280;39542;-34.932;138.594;2023-06-10T02:11:34;101614.61;;;17.25;65.45
53635;BME280;39542;-34.932;138.594;2023-06-10T02:12:09;101616.19;;;17.24;65.40
53635;BME280;39542;-34.932;138.594;2023-06-10T02:12:44;101615.17;;;17.25;65.42
53635;BME280;39542;-34.932;138.594;2023-06-10T02:13:18;101610.09;;;17.23;65.48
53635;BME280;39542;-34.932;138.594;2023-06-10T02:13:52;101610.96;;;17.23;65.47
53635;BME280;39542;-34.932;138.594;2023-06-10T02:14:26;101609.13;;;17.23;65.41
53635;BME280;39542;-34.932;138.594;2023-06-10T02:15:01;101607.78;;;17.21;65.48
53635;BME280;39542;-34.932;138.594;2023-06-10T02:15:35;101608.30;;;17.23;65.44
53635;BME280;39542;-34.932;138.594;2023-06-10T02:16:10;101604.91;;;17.22;65.45
53635;BME280;39542;-34.932;138.594;2023-06-10T02:16:44;101605.81;;;17.22;65.44
53635;BME280;39542;-34.932;138.594;2023-06-10T02:17:19;101600.53;;;17.20;65.49
53635;BME280;39542;-34.932;138.594;2023-06-10T02:17:53;101600.41;;;17.18;65.51
53635;BME280;39542;-34.932;138.594;2023-06-10T02:18:28;101594.94;;;17.18;65.48
53635;BME280;39542;-34.932;138.594;2023-06-10T02:19:02;101600.81;;;17.16;65.54
53635;BME280;39542;-34.932;138.594;2023-06-10T02:19:37;101597.85;;;17.16;65.54
53635;BME280;39542;-34.932;138.594;2023-06-10T02:20:12;101598.59;;;17.17;65.52
53635;BME280;39542;-34.932;138.594;2023-06-10T02:20:46;101598.28;;;17.19;65.48
53635;BME280;39542;-34.932;138.594;2023-06-10T02:21:20;101596.20;;;17.18;65.46
53635;BME280;39542;-34.932;138.594;2023-06-10T02:21:55;101595.42;;;17.17;65.51
53635;BME280;39542;-34.932;138.594;2023-06-10T02:22:29;101594.05;;;17.18;65.51
53635;BME280;39542;-34.932;138.594;2023-06-10T02:23:04;101593.80;;;17.18;65.55
53635;BME280;39542;-34.932;138.594;2023-06-10T02:23:38;101593.08;;;17.18;65.53
53635;BME280;39542;-34.932;138.594;2023-06-10T02:24:13;101592.44;;;17.20;65.46
53635;BME280;39542;-34.932;138.594;2023-06-10T02:24:47;101593.04;;;17.18;65.48
53635;BME280;39542;-34.932;138.594;2023-06-10T02:25:21;101594.06;;;17.18;65.50
53635;BME280;39542;-34.932;138.594;2023-06-10T02:25:55;101594.48;;;17.18;65.51
53635;BME280;39542;-34.932;138.594;2023-06-10T02:26:30;101594.39;;;17.19;65.52
53635;BME280;39542;-34.932;138.594;2023-06-10T02:27:05;101591.91;;;17.18;65.55
53635;BME280;39542;-34.932;138.594;2023-06-10T02:27:39;101589.63;;;17.18;65.58
53635;BME280;39542;-34.932;138.594;2023-06-10T02:28:13;101592.33;;;17.19;65.54
53635;BME280;39542;-34.932;138.594;2023-06-10T02:28:48;101592.56;;;17.19;65.55
53635;BME280;39542;-34.932;138.594;2023-06-10T02:29:22;101593.03;;;17.19;65.58
53635;BME280;39542;-34.932;138.594;2023-06-10T02:29:56;101592.39;;;17.20;65.55
53635;BME280;39542;-34.932;138.594;2023-06-10T02:30:31;101592.91;;;17.19;65.52
53635;BME280;39542;-34.932;138.594;2023-06-10T02:31:05;101590.80;;;17.21;65.56
53635;BME280;39542;-34.932;138.594;2023-06-10T02:31:39;101590.65;;;17.21;65.56
53635;BME280;39542;-34.932;138.594;2023-06-10T02:32:13;101594.00;;;17.21;65.61
53635;BME280;39542;-34.932;138.594;2023-06-10T02:32:47;101594.44;;;17.19;65.66
53635;BME280;39542;-34.932;138.594;2023-06-10T02:33:21;101592.38;;;17.17;65.78
53635;BME280;39542;-34.932;138.594;2023-06-10T02:33:55;101588.66;;;17.16;66.40
53635;BME280;39542;-34.932;138.594;2023-06-10T02:34:29;101585.73;;;17.12;67.30
53635;BME280;39542;-34.932;138.594;2023-06-10T02:35:04;101585.29;;;17.15;67.22
53635;BME280;39542;-34.932;138.594;2023-06-10T02:35:38;101584.60;;;17.17;67.11
53635;BME280;39542;-34.932;138.594;2023-06-10T02:36:13;101585.18;;;17.18;66.97
53635;BME280;39542;-34.932;138.594;2023-06-10T02:36:47;101586.01;;;17.18;66.88
53635;BME280;39542;-34.932;138.594;2023-06-10T02:37:21;101586.80;;;17.21;66.72
53635;BME280;39542;-34.932;138.594;2023-06-10T02:37:55;101587.28;;;17.20;66.65
53635;BME280;39542;-34.932;138.594;2023-06-10T02:38:30;101587.71;;;17.20;66.60
53635;BME280;39542;-34.932;138.594;2023-06-10T02:39:04;101586.63;;;17.19;66.62
53635;BME280;39542;-34.932;138.594;2023-06-10T02:39:38;101585.15;;;17.19;66.61
53635;BME280;39542;-34.932;138.594;2023-06-10T02:40:13;101581.96;;;17.19;66.56
53635;BME280;39542;-34.932;138.594;2023-06-10T02:40:47;101582.39;;;17.23;66.46
53635;BME280;39542;-34.932;138.594;2023-06-10T02:41:22;101583.68;;;17.23;66.38
53635;BME280;39542;-34.932;138.594;2023-06-10T02:41:56;101583.95;;;17.23;66.43
53635;BME280;39542;-34.932;138.594;2023-06-10T02:42:30;101581.92;;;17.22;66.46
53635;BME280;39542;-34.932;138.594;2023-06-10T02:43:05;101578.85;;;17.24;66.37
53635;BME280;39542;-34.932;138.594;2023-06-10T02:43:39;101578.03;;;17.23;66.37
53635;BME280;39542;-34.932;138.594;2023-06-10T02:44:13;101580.91;;;17.23;66.32
53635;BME280;39542;-34.932;138.594;2023-06-10T02:44:49;101580.54;;;17.23;66.36
53635;BME280;39542;-34.932;138.594;2023-06-10T02:45:23;101578.52;;;17.21;66.36
53635;BME280;39542;-34.932;138.594;2023-06-10T02:45:58;101579.07;;;17.24;66.28
53635;BME280;39542;-34.932;138.594;2023-06-10T02:46:32;101575.91;;;17.23;66.29
53635;BME280;39542;-34.932;138.594;2023-06-10T02:47:07;101576.31;;;17.24;66.25
53635;BME280;39542;-34.932;138.594;2023-06-10T02:47:41;101576.95;;;17.24;66.28
53635;BME280;39542;-34.932;138.594;2023-06-10T02:48:15;101573.36;;;17.22;66.27
53635;BME280;39542;-34.932;138.594;2023-06-10T02:48:49;101576.80;;;17.21;66.26
53635;BME280;39542;-34.932;138.594;2023-06-10T02:49:24;101575.51;;;17.22;66.24
53635;BME280;39542;-34.932;138.594;2023-06-10T02:49:59;101573.15;;;17.25;66.24
53635;BME280;39542;-34.932;138.594;2023-06-10T02:50:34;101576.09;;;17.25;66.18
53635;BME280;39542;-34.932;138.594;2023-06-10T02:51:09;101576.70;;;17.26;66.17
53635;BME280;39542;-34.932;138.594;2023-06-10T02:51:43;101572.12;;;17.27;66.14
53635;BME280;39542;-34.932;138.594;2023-06-10T02:52:17;101570.62;;;17.28;66.14
53635;BME280;39542;-34.932;138.594;2023-06-10T02:52:51;101567.52;;;17.28;66.09
53635;BME280;39542;-34.932;138.594;2023-06-10T02:53:25;101567.37;;;17.27;66.11
53635;BME280;39542;-34.932;138.594;2023-06-10T02:53:59;101570.08;;;17.27;66.09
53635;BME280;39542;-34.932;138.594;2023-06-10T02:54:34;101569.30;;;17.26;66.07
53635;BME280;39542;-34.932;138.594;2023-06-10T02:55:08;101568.60;;;17.25;66.13
53635;BME280;39542;-34.932;138.594;2023-06-10T02:55:43;101564.99;;;17.23;66.18
53635;BME280;39542;-34.932;138.594;2023-06-10T02:56:18;101564.75;;;17.22;66.17
53635;BME280;39542;-34.932;138.594;2023-06-10T02:56:53;101565.21;;;17.23;66.11
53635;BME280;39542;-34.932;138.594;2023-06-10T02:57:27;101562.42;;;17.22;66.15
53635;BME280;39542;-34.932;138.594;2023-06-10T02:58:02;101563.11;;;17.20;66.17
53635;BME280;39542;-34.932;138.594;2023-06-10T02:58:36;101563.68;;;17.21;66.19
53635;BME280;39542;-34.932;138.594;2023-06-10T02:59:10;101561.82;;;17.21;66.20
53635;BME280;39542;-34.932;138.594;2023-06-10T02:59:45;101562.44;;;17.21;66.16
53635;BME280;39542;-34.932;138.594;2023-06-10T03:00:20;101563.06;;;17.20;66.17
53635;BME280;39542;-34.932;138.594;2023-06-10T03:04:14;101557.29;;;17.33;65.85
53635;BME280;39542;-34.932;138.594;2023-06-10T03:04:52;101555.47;;;17.37;65.74
53635;BME280;39542;-34.932;138.594;2023-06-10T03:05:27;101551.69;;;17.43;65.58
53635;BME280;39542;-34.932;138.594;2023-06-10T03:06:02;101554.01;;;17.52;65.36
53635;BME280;39542;-34.932;138.594;2023-06-10T03:06:37;101551.97;;;17.58;65.19
53635;BME280;39542;-34.932;138.594;2023-06-10T03:07:12;101551.81;;;17.64;65.10